sensor_id;sensor_type;location;lat;lon;timestamp;pressure;altitude;pressure_sealevel;temperature;humidity
77583;BME280;66726;52.388;9.986;2024-03-02T00:01:53;99678.28;;;8.40;85.51
77583;BME280;66726;52.388;9.986;2024-03-02T00:04:21;99687.28;;;8.39;85.27
77583;BME280;66726;52.388;9.986;2024-03-02T00:06:51;99686.66;;;8.37;85.72
77583;BME280;66726;52.388;9.986;2024-03-02T00:09:22;99690.97;;;8.38;85.63
77583;BME280;66726;52.388;9.986;2024-03-02T00:11:50;99694.66;;;8.37;85.89
77583;BME280;66726;52.388;9.986;2024-03-02T00:14:19;99686.00;;;8.35;85.33
77583;BME280;66726;52.388;9.986;2024-03-02T00:16:47;99680.66;;;8.35;85.72
77583;BME280;66726;52.388;9.986;2024-03-02T00:19:17;99681.66;;;8.34;85.60
77583;BME280;66726;52.388;9.986;2024-03-02T00:21:45;99682.00;;;8.31;86.40
77583;BME280;66726;52.388;9.986;2024-03-02T00:24:21;99686.50;;;8.31;86.76
77583;BME280;66726;52.388;9.986;2024-03-02T00:26:54;99677.50;;;8.32;86.42
77583;BME280;66726;52.388;9.986;2024-03-02T00:29:22;99673.16;;;8.31;86.12
77583;BME280;66726;52.388;9.986;2024-03-02T00:31:51;99682.16;;;8.30;86.50
77583;BME280;66726;52.388;9.986;2024-03-02T00:34:22;99667.00;;;8.30;86.79
77583;BME280;66726;52.388;9.986;2024-03-02T00:36:50;99675.00;;;8.30;86.70
77583;BME280;66726;52.388;9.986;2024-03-02T00:39:19;99670.81;;;8.28;87.04
77583;BME280;66726;52.388;9.986;2024-03-02T00:41:47;99669.00;;;8.28;86.93
77583;BME280;66726;52.388;9.986;2024-03-02T00:44:16;99663.81;;;8.27;87.13
77583;BME280;66726;52.388;9.986;2024-03-02T00:46:47;99665.63;;;8.26;87.13
77583;BME280;66726;52.388;9.986;2024-03-02T00:49:22;99670.13;;;8.26;87.53
77583;BME280;66726;52.388;9.986;2024-03-02T00:51:52;99667.47;;;8.26;86.95
77583;BME280;66726;52.388;9.986;2024-03-02T00:54:23;99667.66;;;8.24;87.01
77583;BME280;66726;52.388;9.986;2024-03-02T00:56:52;99672.16;;;8.24;87.02
77583;BME280;66726;52.388;9.986;2024-03-02T00:59:22;99674.19;;;8.22;87.28
77583;BME280;66726;52.388;9.986;2024-03-02T01:01:51;99676.00;;;8.21;87.39
77583;BME280;66726;52.388;9.986;2024-03-02T01:04:22;99679.50;;;8.22;87.22
77583;BME280;66726;52.388;9.986;2024-03-02T01:06:50;99677.84;;;8.21;87.12
77583;BME280;66726;52.388;9.986;2024-03-02T01:09:18;99689.34;;;8.21;87.06
77583;BME280;66726;52.388;9.986;2024-03-02T01:11:47;99686.31;;;8.24;87.03
77583;BME280;66726;52.388;9.986;2024-03-02T01:14:15;99689.97;;;8.23;87.04
77583;BME280;66726;52.388;9.986;2024-03-02T01:16:44;99678.66;;;8.21;86.83
77583;BME280;66726;52.388;9.986;2024-03-02T01:19:12;99678.66;;;8.21;86.92
77583;BME280;66726;52.388;9.986;2024-03-02T01:21:42;99688.31;;;8.22;86.96
77583;BME280;66726;52.388;9.986;2024-03-02T01:24:10;99687.50;;;8.22;86.56
77583;BME280;66726;52.388;9.986;2024-03-02T01:26:40;99686.00;;;8.19;87.27
77583;BME280;66726;52.388;9.986;2024-03-02T01:29:08;99685.34;;;8.17;87.52
77583;BME280;66726;52.388;9.986;2024-03-02T01:31:36;99683.50;;;8.18;87.41
77583;BME280;66726;52.388;9.986;2024-03-02T01:34:04;99684.50;;;8.16;87.70
77583;BME280;66726;52.388;9.986;2024-03-02T01:36:32;99687.31;;;8.15;88.28
77583;BME280;66726;52.388;9.986;2024-03-02T01:39:02;99690.00;;;8.15;87.38
77583;BME280;66726;52.388;9.986;2024-03-02T01:41:30;99681.34;;;8.13;87.88
77583;BME280;66726;52.388;9.986;2024-03-02T01:43:59;99685.00;;;8.12;87.98
77583;BME280;66726;52.388;9.986;2024-03-02T01:46:27;99677.34;;;8.09;88.15
77583;BME280;66726;52.388;9.986;2024-03-02T01:48:55;99673.03;;;8.08;88.48
77583;BME280;66726;52.388;9.986;2024-03-02T01:51:23;99680.38;;;8.06;88.30
77583;BME280;66726;52.388;9.986;2024-03-02T01:53:52;99671.72;;;8.04;88.61
77583;BME280;66726;52.388;9.986;2024-03-02T01:56:21;99665.53;;;8.03;88.26
77583;BME280;66726;52.388;9.986;2024-03-02T01:58:50;99671.72;;;8.04;88.30
77583;BME280;66726;52.388;9.986;2024-03-02T02:01:18;99660.56;;;8.00;88.11
77583;BME280;66726;52.388;9.986;2024-03-02T02:03:46;99663.22;;;8.00;88.65
77583;BME280;66726;52.388;9.986;2024-03-02T02:06:14;99660.72;;;7.99;87.78
77583;BME280;66726;52.388;9.986;2024-03-02T02:08:43;99659.06;;;7.98;88.72
77583;BME280;66726;52.388;9.986;2024-03-02T02:11:15;99657.41;;;7.97;88.46
77583;BME280;66726;52.388;9.986;2024-03-02T02:13:44;99658.41;;;7.96;88.08
77583;BME280;66726;52.388;9.986;2024-03-02T02:16:13;99654.06;;;7.95;88.14
77583;BME280;66726;52.388;9.986;2024-03-02T02:18:41;99651.38;;;7.95;88.14
77583;BME280;66726;52.388;9.986;2024-03-02T02:21:09;99645.06;;;7.96;87.87
77583;BME280;66726;52.388;9.986;2024-03-02T02:23:39;99638.06;;;7.95;88.45
77583;BME280;66726;52.388;9.986;2024-03-02T02:26:09;99638.91;;;7.95;88.49
77583;BME280;66726;52.388;9.986;2024-03-02T02:28:37;99642.41;;;7.96;88.05
77583;BME280;66726;52.388;9.986;2024-03-02T02:31:05;99637.06;;;7.96;87.96
77583;BME280;66726;52.388;9.986;2024-03-02T02:33:39;99636.44;;;7.94;87.81
77583;BME280;66726;52.388;9.986;2024-03-02T02:36:07;99639.94;;;7.94;88.36
77583;BME280;66726;52.388;9.986;2024-03-02T02:38:44;99639.09;;;7.94;87.67
77583;BME280;66726;52.388;9.986;2024-03-02T02:41:13;99633.75;;;7.94;88.32
77583;BME280;66726;52.388;9.986;2024-03-02T02:43:41;99638.25;;;7.93;88.26
77583;BME280;66726;52.388;9.986;2024-03-02T02:46:10;99644.75;;;7.91;88.27
77583;BME280;66726;52.388;9.986;2024-03-02T02:48:37;99644.75;;;7.91;88.27
77583;BME280;66726;52.388;9.986;2024-03-02T02:51:05;99644.09;;;7.89;88.55
77583;BME280;66726;52.388;9.986;2024-03-02T02:53:33;99652.06;;;7.89;88.01
77583;BME280;66726;52.388;9.986;2024-03-02T02:56:04;99645.06;;;7.88;88.05
77583;BME280;66726;52.388;9.986;2024-03-02T02:58:32;99641.41;;;7.89;88.34
77583;BME280;66726;52.388;9.986;2024-03-02T03:01:00;99646.25;;;7.85;87.92
77583;BME280;66726;52.388;9.986;2024-03-02T03:03:29;99629.44;;;7.85;88.30
77583;BME280;66726;52.388;9.986;2024-03-02T03:05:57;99640.09;;;7.85;88.28
77583;BME280;66726;52.388;9.986;2024-03-02T03:08:25;99636.78;;;7.83;88.11
77583;BME280;66726;52.388;9.986;2024-03-02T03:10:53;99635.94;;;7.82;88.40
77583;BME280;66726;52.388;9.986;2024-03-02T03:13:24;99635.09;;;7.82;88.08
77583;BME280;66726;52.388;9.986;2024-03-02T03:15:53;99631.78;;;7.80;88.31
77583;BME280;66726;52.388;9.986;2024-03-02T03:18:21;99630.13;;;7.79;88.27
77583;BME280;66726;52.388;9.986;2024-03-02T03:20:49;99640.78;;;7.79;88.46
77583;BME280;66726;52.388;9.986;2024-03-02T03:23:17;99630.31;;;7.77;88.72
77583;BME280;66726;52.388;9.986;2024-03-02T03:25:46;99636.63;;;7.76;88.84
77583;BME280;66726;52.388;9.986;2024-03-02T03:28:14;99634.09;;;7.75;88.33
77583;BME280;66726;52.388;9.986;2024-03-02T03:30:42;99632.47;;;7.74;88.75
77583;BME280;66726;52.388;9.986;2024-03-02T03:33:11;99626.47;;;7.72;88.59
77583;BME280;66726;52.388;9.986;2024-03-02T03:35:39;99630.13;;;7.71;88.21
77583;BME280;66726;52.388;9.986;2024-03-02T03:38:07;99624.13;;;7.69;88.49
77583;BME280;66726;52.388;9.986;2024-03-02T03:40:35;99628.81;;;7.67;88.51
77583;BME280;66726;52.388;9.986;2024-03-02T03:43:04;99629.81;;;7.65;88.46
77583;BME280;66726;52.388;9.986;2024-03-02T03:45:32;99623.81;;;7.63;88.42
77583;BME280;66726;52.388;9.986;2024-03-02T03:48:02;99630.16;;;7.62;88.05
77583;BME280;66726;52.388;9.986;2024-03-02T03:50:30;99631.81;;;7.63;88.42
77583;BME280;66726;52.388;9.986;2024-03-02T03:52:59;99624.97;;;7.61;88.70
77583;BME280;66726;52.388;9.986;2024-03-02T03:55:27;99630.00;;;7.56;88.36
77583;BME280;66726;52.388;9.986;2024-03-02T03:57:55;99626.50;;;7.55;88.48
77583;BME280;66726;52.388;9.986;2024-03-02T04:00:23;99616.81;;;7.54;88.79
77583;BME280;66726;52.388;9.986;2024-03-02T04:02:52;99616.19;;;7.52;89.16
77583;BME280;66726;52.388;9.986;2024-03-02T04:05:21;99614.50;;;7.51;89.14
77583;BME280;66726;52.388;9.986;2024-03-02T04:07:49;99620.00;;;7.50;89.15
77583;BME280;66726;52.388;9.986;2024-03-02T04:10:17;99618.69;;;7.46;88.68
77583;BME280;66726;52.388;9.986;2024-03-02T04:12:49;99627.16;;;7.41;89.14
77583;BME280;66726;52.388;9.986;2024-03-02T04:15:18;99631.66;;;7.41;88.79
77583;BME280;66726;52.388;9.986;2024-03-02T04:17:46;99629.00;;;7.41;89.14
77583;BME280;66726;52.388;9.986;2024-03-02T04:20:14;99619.16;;;7.33;89.01
77583;BME280;66726;52.388;9.986;2024-03-02T04:22:44;99620.00;;;7.34;88.96
77583;BME280;66726;52.388;9.986;2024-03-02T04:25:12;99631.81;;;7.31;88.75
77583;BME280;66726;52.388;9.986;2024-03-02T04:27:41;99631.16;;;7.29;89.66
77583;BME280;66726;52.388;9.986;2024-03-02T04:30:11;99619.84;;;7.27;89.71
77583;BME280;66726;52.388;9.986;2024-03-02T04:32:39;99627.16;;;7.25;89.58
77583;BME280;66726;52.388;9.986;2024-03-02T04:35:07;99632.50;;;7.25;89.48
77583;BME280;66726;52.388;9.986;2024-03-02T04:37:36;99633.47;;;7.24;89.69
77583;BME280;66726;52.388;9.986;2024-03-02T04:40:08;99629.97;;;7.24;89.42
77583;BME280;66726;52.388;9.986;2024-03-02T04:42:37;99637.13;;;7.23;89.82
77583;BME280;66726;52.388;9.986;2024-03-02T04:45:06;99632.81;;;7.22;89.58
77583;BME280;66726;52.388;9.986;2024-03-02T04:47:35;99627.31;;;7.24;90.07
77583;BME280;66726;52.388;9.986;2024-03-02T04:50:04;99627.50;;;7.22;89.88
77583;BME280;66726;52.388;9.986;2024-03-02T04:52:34;99624.16;;;7.20;89.95
77583;BME280;66726;52.388;9.986;2024-03-02T04:55:03;99624.34;;;7.19;89.88
77583;BME280;66726;52.388;9.986;2024-03-02T04:57:47;99622.66;;;7.18;90.08
77583;BME280;66726;52.388;9.986;2024-03-02T05:00:18;99623.66;;;7.17;89.66
77583;BME280;66726;52.388;9.986;2024-03-02T05:02:46;99630.00;;;7.16;89.90
77583;BME280;66726;52.388;9.986;2024-03-02T05:05:14;99629.31;;;7.13;89.85
77583;BME280;66726;52.388;9.986;2024-03-02T05:07:43;99636.66;;;7.11;89.59
77583;BME280;66726;52.388;9.986;2024-03-02T05:10:11;99642.13;;;7.10;89.75
77583;BME280;66726;52.388;9.986;2024-03-02T05:12:39;99640.78;;;7.06;89.34
77583;BME280;66726;52.388;9.986;2024-03-02T05:15:25;99640.97;;;7.04;89.81
77583;BME280;66726;52.388;9.986;2024-03-02T05:17:53;99638.78;;;7.00;89.47
77583;BME280;66726;52.388;9.986;2024-03-02T05:20:24;99637.09;;;6.99;89.67
77583;BME280;66726;52.388;9.986;2024-03-02T05:22:52;99631.13;;;6.97;89.42
77583;BME280;66726;52.388;9.986;2024-03-02T05:25:20;99635.78;;;6.95;89.69
77583;BME280;66726;52.388;9.986;2024-03-02T05:27:48;99635.94;;;6.93;89.68
77583;BME280;66726;52.388;9.986;2024-03-02T05:30:16;99630.78;;;6.92;89.60
77583;BME280;66726;52.388;9.986;2024-03-02T05:32:46;99626.63;;;6.89;90.11
77583;BME280;66726;52.388;9.986;2024-03-02T05:35:14;99631.94;;;6.89;90.46
77583;BME280;66726;52.388;9.986;2024-03-02T05:37:42;99635.44;;;6.90;90.18
77583;BME280;66726;52.388;9.986;2024-03-02T05:40:11;99635.63;;;6.88;90.31
77583;BME280;66726;52.388;9.986;2024-03-02T05:42:40;99630.59;;;6.85;90.43
77583;BME280;66726;52.388;9.986;2024-03-02T05:45:08;99634.28;;;6.84;90.67
77583;BME280;66726;52.388;9.986;2024-03-02T05:47:37;99629.09;;;6.83;91.21
77583;BME280;66726;52.388;9.986;2024-03-02T05:50:07;99636.44;;;6.81;90.75
77583;BME280;66726;52.388;9.986;2024-03-02T05:52:36;99629.59;;;6.78;91.13
77583;BME280;66726;52.388;9.986;2024-03-02T05:55:05;99631.44;;;6.78;90.74
77583;BME280;66726;52.388;9.986;2024-03-02T05:57:33;99626.28;;;6.76;91.75
77583;BME280;66726;52.388;9.986;2024-03-02T06:00:16;99636.06;;;6.76;91.77
77583;BME280;66726;52.388;9.986;2024-03-02T06:02:44;99624.78;;;6.74;91.59
77583;BME280;66726;52.388;9.986;2024-03-02T06:05:14;99634.56;;;6.73;92.04
77583;BME280;66726;52.388;9.986;2024-03-02T06:07:43;99631.41;;;6.70;91.98
77583;BME280;66726;52.388;9.986;2024-03-02T06:10:14;99643.03;;;6.69;92.06
77583;BME280;66726;52.388;9.986;2024-03-02T06:12:42;99642.06;;;6.70;92.29
77583;BME280;66726;52.388;9.986;2024-03-02T06:15:11;99639.38;;;6.70;92.40
77583;BME280;66726;52.388;9.986;2024-03-02T06:17:39;99649.38;;;6.68;92.97
77583;BME280;66726;52.388;9.986;2024-03-02T06:20:08;99647.69;;;6.67;93.07
77583;BME280;66726;52.388;9.986;2024-03-02T06:22:38;99657.34;;;6.68;92.67
77583;BME280;66726;52.388;9.986;2024-03-02T06:25:07;99653.66;;;6.69;93.00
77583;BME280;66726;52.388;9.986;2024-03-02T06:27:36;99653.66;;;6.69;93.01
77583;BME280;66726;52.388;9.986;2024-03-02T06:30:05;99653.66;;;6.69;93.56
77583;BME280;66726;52.388;9.986;2024-03-02T06:32:33;99651.84;;;6.69;93.62
77583;BME280;66726;52.388;9.986;2024-03-02T06:35:03;99653.53;;;6.70;93.49
77583;BME280;66726;52.388;9.986;2024-03-02T06:37:31;99656.19;;;6.70;93.75
77583;BME280;66726;52.388;9.986;2024-03-02T06:40:01;99653.53;;;6.70;93.33
77583;BME280;66726;52.388;9.986;2024-03-02T06:42:29;99663.31;;;6.70;93.65
77583;BME280;66726;52.388;9.986;2024-03-02T06:45:00;99661.31;;;6.72;93.74
77583;BME280;66726;52.388;9.986;2024-03-02T06:47:29;99670.66;;;6.68;93.89
77583;BME280;66726;52.388;9.986;2024-03-02T06:49:57;99681.94;;;6.70;94.06
77583;BME280;66726;52.388;9.986;2024-03-02T06:52:26;99676.63;;;6.70;93.72
77583;BME280;66726;52.388;9.986;2024-03-02T06:54:54;99674.81;;;6.70;94.11
77583;BME280;66726;52.388;9.986;2024-03-02T06:57:23;99676.47;;;6.71;94.57
77583;BME280;66726;52.388;9.986;2024-03-02T06:59:52;99673.81;;;6.71;94.08
77583;BME280;66726;52.388;9.986;2024-03-02T07:02:21;99677.97;;;6.74;94.10
77583;BME280;66726;52.388;9.986;2024-03-02T07:04:50;99676.16;;;6.74;94.15
77583;BME280;66726;52.388;9.986;2024-03-02T07:07:18;99673.31;;;6.76;94.32
77583;BME280;66726;52.388;9.986;2024-03-02T07:09:46;99673.16;;;6.77;94.75
77583;BME280;66726;52.388;9.986;2024-03-02T07:12:15;99673.81;;;6.79;94.59
77583;BME280;66726;52.388;9.986;2024-03-02T07:14:44;99687.97;;;6.80;94.62
77583;BME280;66726;52.388;9.986;2024-03-02T07:17:34;99691.97;;;6.84;94.86
77583;BME280;66726;52.388;9.986;2024-03-02T07:20:05;99688.31;;;6.85;94.53
77583;BME280;66726;52.388;9.986;2024-03-02T07:22:33;99681.84;;;6.87;94.79
77583;BME280;66726;52.388;9.986;2024-03-02T07:25:02;99682.69;;;6.88;94.75
77583;BME280;66726;52.388;9.986;2024-03-02T07:27:31;99683.34;;;6.90;94.68
77583;BME280;66726;52.388;9.986;2024-03-02T07:30:02;99686.66;;;6.92;94.59
77583;BME280;66726;52.388;9.986;2024-03-02T07:32:30;99697.00;;;6.95;95.11
77583;BME280;66726;52.388;9.986;2024-03-02T07:34:58;99698.63;;;6.96;94.99
77583;BME280;66726;52.388;9.986;2024-03-02T07:37:28;99690.50;;;6.97;95.24
77583;BME280;66726;52.388;9.986;2024-03-02T07:39:56;99690.31;;;6.99;95.00
77583;BME280;66726;52.388;9.986;2024-03-02T07:42:25;99699.84;;;7.01;95.00
77583;BME280;66726;52.388;9.986;2024-03-02T07:44:53;99705.81;;;7.03;95.40
77583;BME280;66726;52.388;9.986;2024-03-02T07:47:22;99711.00;;;7.05;95.30
77583;BME280;66726;52.388;9.986;2024-03-02T07:49:50;99707.81;;;7.09;94.92
77583;BME280;66726;52.388;9.986;2024-03-02T07:52:19;99714.50;;;7.13;95.17
77583;BME280;66726;52.388;9.986;2024-03-02T07:54:47;99713.50;;;7.14;95.48
77583;BME280;66726;52.388;9.986;2024-03-02T07:57:15;99716.66;;;7.18;95.38
77583;BME280;66726;52.388;9.986;2024-03-02T07:59:43;99715.34;;;7.22;95.22
77583;BME280;66726;52.388;9.986;2024-03-02T08:02:11;99714.00;;;7.26;95.19
77583;BME280;66726;52.388;9.986;2024-03-02T08:04:42;99726.00;;;7.30;95.44
77583;BME280;66726;52.388;9.986;2024-03-02T08:07:10;99729.84;;;7.36;95.83
77583;BME280;66726;52.388;9.986;2024-03-02T08:09:38;99733.69;;;7.41;95.32
77583;BME280;66726;52.388;9.986;2024-03-02T08:12:07;99724.03;;;7.48;94.98
77583;BME280;66726;52.388;9.986;2024-03-02T08:14:35;99728.03;;;7.52;94.99
77583;BME280;66726;52.388;9.986;2024-03-02T08:17:03;99724.69;;;7.58;94.70
77583;BME280;66726;52.388;9.986;2024-03-02T08:19:37;99722.06;;;7.67;94.65
77583;BME280;66726;52.388;9.986;2024-03-02T08:22:07;99724.69;;;7.75;94.44
77583;BME280;66726;52.388;9.986;2024-03-02T08:24:36;99720.38;;;7.82;94.71
77583;BME280;66726;52.388;9.986;2024-03-02T08:27:04;99730.69;;;7.93;93.92
77583;BME280;66726;52.388;9.986;2024-03-02T08:29:32;99738.84;;;7.99;94.17
77583;BME280;66726;52.388;9.986;2024-03-02T08:32:01;99721.34;;;8.05;93.49
77583;BME280;66726;52.388;9.986;2024-03-02T08:34:29;99726.50;;;8.14;93.28
77583;BME280;66726;52.388;9.986;2024-03-02T08:36:57;99724.66;;;8.23;93.31
77583;BME280;66726;52.388;9.986;2024-03-02T08:39:27;99726.31;;;8.32;91.68
77583;BME280;66726;52.388;9.986;2024-03-02T08:41:55;99720.13;;;8.40;91.62
77583;BME280;66726;52.388;9.986;2024-03-02T08:44:23;99723.78;;;8.47;91.40
77583;BME280;66726;52.388;9.986;2024-03-02T08:46:52;99722.94;;;8.54;90.79
77583;BME280;66726;52.388;9.986;2024-03-02T08:49:20;99730.56;;;8.65;90.38
77583;BME280;66726;52.388;9.986;2024-03-02T08:51:48;99727.56;;;8.69;89.63
77583;BME280;66726;52.388;9.986;2024-03-02T08:54:22;99742.88;;;8.75;89.09
77583;BME280;66726;52.388;9.986;2024-03-02T08:56:51;99742.34;;;8.79;87.93
77583;BME280;66726;52.388;9.986;2024-03-02T08:59:19;99737.16;;;8.86;87.85
77583;BME280;66726;52.388;9.986;2024-03-02T09:01:48;99742.78;;;8.91;87.10
77583;BME280;66726;52.388;9.986;2024-03-02T09:04:16;99743.28;;;8.94;87.31
77583;BME280;66726;52.388;9.986;2024-03-02T09:06:44;99737.06;;;9.02;87.16
77583;BME280;66726;52.388;9.986;2024-03-02T09:09:12;99744.38;;;9.08;86.45
77583;BME280;66726;52.388;9.986;2024-03-02T09:11:41;99744.50;;;9.14;86.71
77583;BME280;66726;52.388;9.986;2024-03-02T09:14:10;99750.66;;;9.23;86.45
77583;BME280;66726;52.388;9.986;2024-03-02T09:16:38;99744.25;;;9.32;85.24
77583;BME280;66726;52.388;9.986;2024-03-02T09:19:06;99751.22;;;9.41;85.11
77583;BME280;66726;52.388;9.986;2024-03-02T09:21:34;99747.13;;;9.53;84.34
77583;BME280;66726;52.388;9.986;2024-03-02T09:24:03;99748.44;;;9.57;84.03
77583;BME280;66726;52.388;9.986;2024-03-02T09:26:31;99752.09;;;9.56;84.45
77583;BME280;66726;52.388;9.986;2024-03-02T09:28:59;99748.19;;;9.67;81.70
77583;BME280;66726;52.388;9.986;2024-03-02T09:31:29;99745.88;;;9.64;82.85
77583;BME280;66726;52.388;9.986;2024-03-02T09:33:57;99754.31;;;9.76;80.66
77583;BME280;66726;52.388;9.986;2024-03-02T09:36:25;99759.09;;;9.80;80.73
77583;BME280;66726;52.388;9.986;2024-03-02T09:38:53;99754.53;;;9.89;79.14
77583;BME280;66726;52.388;9.986;2024-03-02T09:41:22;99753.50;;;9.90;79.75
77583;BME280;66726;52.388;9.986;2024-03-02T09:43:50;99759.78;;;9.97;78.89
77583;BME280;66726;52.388;9.986;2024-03-02T09:46:19;99760.16;;;9.94;78.77
77583;BME280;66726;52.388;9.986;2024-03-02T09:48:49;99766.75;;;10.06;78.44
77583;BME280;66726;52.388;9.986;2024-03-02T09:51:19;99766.38;;;10.09;79.07
77583;BME280;66726;52.388;9.986;2024-03-02T09:53:48;99764.56;;;10.09;78.68
77583;BME280;66726;52.388;9.986;2024-03-02T09:56:16;99767.03;;;10.11;79.45
77583;BME280;66726;52.388;9.986;2024-03-02T09:58:45;99768.06;;;10.10;79.57
77583;BME280;66726;52.388;9.986;2024-03-02T10:01:14;99763.84;;;10.15;78.89
77583;BME280;66726;52.388;9.986;2024-03-02T10:03:44;99759.34;;;10.16;79.06
77583;BME280;66726;52.388;9.986;2024-03-02T10:06:23;99761.00;;;10.17;78.80
77583;BME280;66726;52.388;9.986;2024-03-02T10:08:53;99764.31;;;10.19;78.25
77583;BME280;66726;52.388;9.986;2024-03-02T10:11:27;99760.91;;;10.25;78.29
77583;BME280;66726;52.388;9.986;2024-03-02T10:14:07;99764.44;;;10.26;78.03
77583;BME280;66726;52.388;9.986;2024-03-02T10:16:37;99774.75;;;10.29;79.14
77583;BME280;66726;52.388;9.986;2024-03-02T10:19:20;99772.56;;;10.32;77.06
77583;BME280;66726;52.388;9.986;2024-03-02T10:21:51;99779.56;;;10.33;77.08
77583;BME280;66726;52.388;9.986;2024-03-02T10:24:21;99775.53;;;10.37;77.94
77583;BME280;66726;52.388;9.986;2024-03-02T10:26:51;99775.78;;;10.42;76.88
77583;BME280;66726;52.388;9.986;2024-03-02T10:29:19;99771.56;;;10.48;75.68
77583;BME280;66726;52.388;9.986;2024-03-02T10:31:47;99767.69;;;10.50;76.81
77583;BME280;66726;52.388;9.986;2024-03-02T10:34:15;99759.09;;;10.55;74.77
77583;BME280;66726;52.388;9.986;2024-03-02T10:36:44;99767.78;;;10.57;75.29
77583;BME280;66726;52.388;9.986;2024-03-02T10:39:14;99771.56;;;10.62;76.65
77583;BME280;66726;52.388;9.986;2024-03-02T10:41:45;99764.00;;;10.66;75.38
77583;BME280;66726;52.388;9.986;2024-03-02T10:44:16;99771.66;;;10.69;75.92
77583;BME280;66726;52.388;9.986;2024-03-02T10:46:47;99772.94;;;10.73;74.70
77583;BME280;66726;52.388;9.986;2024-03-02T10:49:17;99778.97;;;10.75;75.10
77583;BME280;66726;52.388;9.986;2024-03-02T10:51:47;99780.44;;;10.78;75.75
77583;BME280;66726;52.388;9.986;2024-03-02T10:54:16;99780.53;;;10.84;76.34
77583;BME280;66726;52.388;9.986;2024-03-02T10:56:55;99779.59;;;10.92;74.66
77583;BME280;66726;52.388;9.986;2024-03-02T10:59:28;99788.19;;;11.02;74.13
77583;BME280;66726;52.388;9.986;2024-03-02T11:01:59;99783.75;;;11.09;75.38
77583;BME280;66726;52.388;9.986;2024-03-02T11:04:32;99779.78;;;11.19;75.10
77583;BME280;66726;52.388;9.986;2024-03-02T11:07:05;99781.47;;;11.27;76.01
77583;BME280;66726;52.388;9.986;2024-03-02T11:09:41;99780.38;;;11.36;73.05
77583;BME280;66726;52.388;9.986;2024-03-02T11:12:15;99782.91;;;11.44;71.87
77583;BME280;66726;52.388;9.986;2024-03-02T11:14:47;99787.41;;;11.58;72.27
77583;BME280;66726;52.388;9.986;2024-03-02T11:17:16;99789.06;;;11.74;73.08
77583;BME280;66726;52.388;9.986;2024-03-02T11:19:47;99785.84;;;11.85;72.23
77583;BME280;66726;52.388;9.986;2024-03-02T11:22:16;99782.22;;;11.93;71.74
77583;BME280;66726;52.388;9.986;2024-03-02T11:24:50;99781.09;;;12.02;71.24
77583;BME280;66726;52.388;9.986;2024-03-02T11:28:02;99793.00;;;11.99;69.16
77583;BME280;66726;52.388;9.986;2024-03-02T11:30:52;99785.03;;;12.06;70.31
77583;BME280;66726;52.388;9.986;2024-03-02T11:33:26;99781.72;;;12.04;69.35
77583;BME280;66726;52.388;9.986;2024-03-02T11:35:57;99786.31;;;12.10;68.90
77583;BME280;66726;52.388;9.986;2024-03-02T11:38:30;99783.88;;;12.15;69.13
77583;BME280;66726;52.388;9.986;2024-03-02T11:41:02;99789.09;;;12.23;70.42
77583;BME280;66726;52.388;9.986;2024-03-02T11:43:31;99788.97;;;12.31;69.00
77583;BME280;66726;52.388;9.986;2024-03-02T11:46:00;99794.16;;;12.33;69.80
77583;BME280;66726;52.388;9.986;2024-03-02T11:48:32;99786.31;;;12.38;68.69
77583;BME280;66726;52.388;9.986;2024-03-02T11:51:01;99789.44;;;12.41;67.37
77583;BME280;66726;52.388;9.986;2024-03-02T11:53:31;99780.59;;;12.47;68.00
77583;BME280;66726;52.388;9.986;2024-03-02T11:56:06;99775.50;;;12.52;67.85
77583;BME280;66726;52.388;9.986;2024-03-02T11:58:37;99766.66;;;12.58;68.68
77583;BME280;66726;52.388;9.986;2024-03-02T12:01:08;99768.31;;;12.59;68.00
77583;BME280;66726;52.388;9.986;2024-03-02T12:03:37;99770.16;;;12.59;67.35
77583;BME280;66726;52.388;9.986;2024-03-02T12:06:06;99767.44;;;12.52;67.63
77583;BME280;66726;52.388;9.986;2024-03-02T12:08:36;99762.06;;;12.52;67.53
77583;BME280;66726;52.388;9.986;2024-03-02T12:11:05;99762.25;;;12.51;67.83
77583;BME280;66726;52.388;9.986;2024-03-02T12:13:34;99762.88;;;12.46;66.18
77583;BME280;66726;52.388;9.986;2024-03-02T12:16:03;99763.03;;;12.45;66.99
77583;BME280;66726;52.388;9.986;2024-03-02T12:18:32;99762.88;;;12.46;67.98
77583;BME280;66726;52.388;9.986;2024-03-02T12:21:00;99770.28;;;12.44;66.32
77583;BME280;66726;52.388;9.986;2024-03-02T12:23:30;99757.50;;;12.46;67.53
77583;BME280;66726;52.388;9.986;2024-03-02T12:25:58;99754.41;;;12.49;67.92
77583;BME280;66726;52.388;9.986;2024-03-02T12:28:28;99750.50;;;12.52;66.99
77583;BME280;66726;52.388;9.986;2024-03-02T12:30:58;99749.28;;;12.54;66.39
77583;BME280;66726;52.388;9.986;2024-03-02T12:33:27;99752.22;;;12.59;66.72
77583;BME280;66726;52.388;9.986;2024-03-02T12:35:57;99751.00;;;12.68;66.64
77583;BME280;66726;52.388;9.986;2024-03-02T12:38:26;99741.13;;;12.76;65.53
77583;BME280;66726;52.388;9.986;2024-03-02T12:40:54;99739.53;;;12.88;65.24
77583;BME280;66726;52.388;9.986;2024-03-02T12:43:22;99739.22;;;13.04;64.50
77583;BME280;66726;52.388;9.986;2024-03-02T12:45:53;99739.94;;;13.26;64.24
77583;BME280;66726;52.388;9.986;2024-03-02T12:48:23;99743.31;;;13.47;62.64
77583;BME280;66726;52.388;9.986;2024-03-02T12:50:51;99744.41;;;13.59;62.50
77583;BME280;66726;52.388;9.986;2024-03-02T12:53:21;99753.09;;;13.75;63.30
77583;BME280;66726;52.388;9.986;2024-03-02T12:55:50;99745.69;;;13.83;61.00
77583;BME280;66726;52.388;9.986;2024-03-02T12:58:19;99757.47;;;14.02;61.02
77583;BME280;66726;52.388;9.986;2024-03-02T13:00:49;99739.25;;;14.17;61.15
77583;BME280;66726;52.388;9.986;2024-03-02T13:03:19;99743.19;;;14.28;59.20
77583;BME280;66726;52.388;9.986;2024-03-02T13:05:50;99744.84;;;14.35;58.06
77583;BME280;66726;52.388;9.986;2024-03-02T13:08:18;99731.56;;;14.60;60.04
77583;BME280;66726;52.388;9.986;2024-03-02T13:10:46;99734.44;;;14.71;58.47
77583;BME280;66726;52.388;9.986;2024-03-02T13:13:15;99733.16;;;14.81;57.14
77583;BME280;66726;52.388;9.986;2024-03-02T13:15:43;99731.88;;;14.90;56.22
77583;BME280;66726;52.388;9.986;2024-03-02T13:18:12;99743.47;;;14.97;56.38
77583;BME280;66726;52.388;9.986;2024-03-02T13:20:42;99735.78;;;15.00;55.95